createdAt,value
2019-05-25T00:00:17.289Z,12.80
2019-05-25T00:02:46.587Z,12.70
2019-05-25T00:05:16.413Z,12.80
2019-05-25T00:07:45.768Z,12.80
2019-05-25T00:10:15.637Z,12.70
2019-05-25T00:12:44.997Z,12.70
2019-05-25T00:15:15.030Z,12.70
2019-05-25T00:17:44.310Z,12.70
2019-05-25T00:20:13.625Z,12.70
2019-05-25T00:22:43.051Z,12.70
2019-05-25T00:25:12.414Z,12.70
2019-05-25T00:27:41.746Z,12.70
2019-05-25T00:30:12.087Z,12.60
2019-05-25T00:32:41.437Z,12.60
2019-05-25T00:35:10.797Z,12.50
2019-05-25T00:37:40.326Z,12.40
2019-05-25T00:40:10.134Z,12.40
2019-05-25T00:42:39.488Z,12.40
2019-05-25T00:45:08.908Z,12.30
2019-05-25T00:47:38.189Z,12.20
2019-05-25T00:50:08.519Z,12.20
2019-05-25T00:52:37.877Z,12.30
2019-05-25T00:55:08.426Z,12.20
2019-05-25T00:57:37.773Z,12.30
2019-05-25T01:00:08.355Z,12.30
2019-05-25T01:02:40.594Z,12.40
2019-05-25T01:05:10.749Z,12.40
2019-05-25T01:07:40.162Z,12.40
2019-05-25T01:10:10.375Z,12.40
2019-05-25T01:12:39.761Z,12.30
2019-05-25T01:15:10.761Z,12.30
2019-05-25T01:17:40.094Z,12.30
2019-05-25T01:20:10.611Z,12.40
2019-05-25T01:22:40.007Z,12.30
2019-05-25T01:25:10.561Z,12.20
2019-05-25T01:27:39.918Z,12.10
2019-05-25T01:30:11.743Z,12.00
2019-05-25T01:32:41.066Z,12.00
2019-05-25T01:35:11.154Z,12.00
2019-05-25T01:37:40.529Z,12.00
2019-05-25T01:40:10.812Z,11.90
2019-05-25T01:42:40.101Z,11.90
2019-05-25T01:45:10.913Z,11.90
2019-05-25T01:47:40.198Z,11.90
2019-05-25T01:50:10.438Z,11.90
2019-05-25T01:52:39.754Z,11.80
2019-05-25T01:55:09.086Z,11.70
2019-05-25T01:57:38.426Z,11.70
2019-05-25T02:00:09.050Z,11.70
2019-05-25T02:02:38.457Z,11.70
2019-05-25T02:05:08.383Z,11.70
2019-05-25T02:07:37.665Z,11.70
2019-05-25T02:10:07.613Z,11.90
2019-05-25T02:12:36.920Z,12.00
2019-05-25T02:15:07.903Z,12.00
2019-05-25T02:17:37.592Z,11.80
2019-05-25T02:20:08.704Z,11.70
2019-05-25T02:22:38.060Z,11.60
2019-05-25T02:25:17.719Z,11.50
2019-05-25T02:27:40.369Z,11.40
2019-05-25T02:30:11.773Z,11.40
2019-05-25T02:32:41.197Z,11.40
2019-05-25T02:35:15.354Z,11.40
2019-05-25T02:37:44.745Z,11.30
2019-05-25T02:40:14.358Z,11.30
2019-05-25T02:42:43.718Z,11.40
2019-05-25T02:45:13.037Z,11.40
2019-05-25T02:47:42.381Z,11.40
2019-05-25T02:50:12.065Z,11.40
2019-05-25T02:52:41.399Z,11.40
2019-05-25T02:55:12.153Z,11.40
2019-05-25T02:57:41.441Z,11.40
2019-05-25T03:00:11.974Z,11.40
2019-05-25T03:02:41.353Z,11.50
2019-05-25T03:05:13.118Z,11.60
2019-05-25T03:07:44.906Z,11.60
2019-05-25T03:10:15.250Z,11.50
2019-05-25T03:12:46.007Z,11.40
2019-05-25T03:15:15.835Z,11.30
2019-05-25T03:17:45.110Z,11.30
2019-05-25T03:20:15.566Z,11.30
2019-05-25T03:22:44.859Z,11.30
2019-05-25T03:25:14.594Z,11.30
2019-05-25T03:27:43.900Z,11.30
2019-05-25T03:30:14.218Z,11.30
2019-05-25T03:32:43.635Z,11.30
2019-05-25T03:35:13.590Z,11.30
2019-05-25T03:37:43.046Z,11.30
2019-05-25T03:40:13.031Z,11.30
2019-05-25T03:42:42.434Z,11.30
2019-05-25T03:45:12.192Z,11.30
2019-05-25T03:47:41.690Z,11.40
2019-05-25T03:50:11.058Z,11.40
2019-05-25T03:52:40.428Z,11.40
2019-05-25T03:55:10.407Z,11.50
2019-05-25T03:57:40.948Z,11.60
2019-05-25T04:00:11.024Z,11.70
2019-05-25T04:02:40.495Z,11.80
2019-05-25T04:05:10.101Z,11.80
2019-05-25T04:07:39.507Z,11.80
2019-05-25T04:10:09.751Z,11.90
2019-05-25T04:12:39.112Z,11.90
2019-05-25T04:15:08.984Z,11.90
2019-05-25T04:17:39.223Z,11.90
2019-05-25T04:20:08.650Z,11.90
2019-05-25T04:22:38.126Z,11.90
2019-05-25T04:25:08.066Z,11.90
2019-05-25T04:27:37.450Z,12.00
2019-05-25T04:30:07.910Z,11.90
2019-05-25T04:32:37.845Z,12.00
2019-05-25T04:35:08.017Z,12.00
2019-05-25T04:37:37.746Z,12.00
2019-05-25T04:40:07.143Z,12.10
2019-05-25T04:42:36.466Z,12.10
2019-05-25T04:45:06.788Z,12.20
2019-05-25T04:47:36.082Z,12.30
2019-05-25T04:50:08.073Z,12.30
2019-05-25T04:52:40.911Z,12.40
2019-05-25T04:55:09.302Z,12.50
2019-05-25T04:57:38.581Z,12.50
2019-05-25T05:00:10.050Z,12.60
2019-05-25T05:02:39.430Z,12.60
2019-05-25T05:05:09.114Z,12.60
2019-05-25T05:07:38.424Z,12.60
2019-05-25T05:10:08.476Z,12.60
2019-05-25T05:12:37.943Z,12.70
2019-05-25T05:15:08.279Z,12.80
2019-05-25T05:17:37.808Z,12.80
2019-05-25T05:20:08.984Z,12.90
2019-05-25T05:22:38.362Z,12.90
2019-05-25T05:25:09.562Z,13.00
2019-05-25T05:27:39.801Z,13.00
2019-05-25T05:30:10.356Z,13.10
2019-05-25T05:32:39.905Z,13.20
2019-05-25T05:35:09.777Z,13.30
2019-05-25T05:37:42.236Z,13.40
2019-05-25T05:40:13.648Z,13.40
2019-05-25T05:42:45.862Z,13.50
2019-05-25T05:45:15.272Z,13.60
2019-05-25T05:47:47.626Z,13.70
2019-05-25T05:50:18.477Z,13.80
2019-05-25T05:52:51.177Z,13.90
2019-05-25T05:55:24.094Z,14.00
2019-05-25T05:57:53.509Z,14.00
2019-05-25T06:00:22.819Z,14.10
2019-05-25T06:02:52.280Z,14.10
2019-05-25T06:05:21.682Z,14.20
2019-05-25T06:07:51.120Z,14.30
2019-05-25T06:10:21.082Z,14.40
2019-05-25T06:12:50.493Z,14.50
2019-05-25T06:15:20.462Z,14.60
2019-05-25T06:17:50.093Z,14.70
2019-05-25T06:20:19.550Z,14.70
2019-05-25T06:22:49.434Z,14.80
2019-05-25T06:25:19.635Z,14.90
2019-05-25T06:27:49.663Z,15.00
2019-05-25T06:30:20.585Z,15.00
2019-05-25T06:32:50.017Z,15.10
2019-05-25T06:35:19.809Z,15.10
2019-05-25T06:37:49.257Z,15.20
2019-05-25T06:40:19.001Z,15.30
2019-05-25T06:42:48.438Z,15.40
2019-05-25T06:45:17.891Z,15.40
2019-05-25T06:47:47.258Z,15.50
2019-05-25T06:50:16.753Z,15.50
2019-05-25T06:52:46.150Z,15.70
2019-05-25T06:55:15.981Z,15.80
2019-05-25T06:57:45.274Z,15.90
2019-05-25T07:00:15.523Z,16.00
2019-05-25T07:02:45.139Z,16.00
2019-05-25T07:05:14.926Z,16.10
2019-05-25T07:07:44.274Z,16.20
2019-05-25T07:10:13.911Z,16.30
2019-05-25T07:12:43.237Z,16.50
2019-05-25T07:15:12.915Z,16.60
2019-05-25T07:17:42.348Z,16.80
2019-05-25T07:20:12.577Z,16.90
2019-05-25T07:22:42.462Z,17.00
2019-05-25T07:25:12.619Z,17.20
2019-05-25T07:27:57.903Z,17.40
2019-05-25T07:30:14.081Z,17.50
2019-05-25T07:32:43.412Z,17.60
2019-05-25T07:35:13.167Z,17.70
2019-05-25T07:37:42.513Z,17.90
2019-05-25T07:40:11.837Z,18.10
2019-05-25T07:42:41.109Z,18.20
2019-05-25T07:45:11.468Z,18.30
2019-05-25T07:47:40.790Z,18.40
2019-05-25T07:50:11.112Z,18.50
2019-05-25T07:52:40.441Z,18.50
2019-05-25T07:55:09.752Z,18.70
2019-05-25T07:57:39.077Z,18.80
2019-05-25T08:00:10.009Z,18.90
2019-05-25T08:02:39.300Z,19.00
2019-05-25T08:05:09.093Z,19.00
2019-05-25T08:07:38.379Z,19.10
2019-05-25T08:10:10.018Z,19.10
2019-05-25T08:12:39.312Z,19.20
2019-05-25T08:15:11.449Z,19.30
2019-05-25T08:17:40.789Z,19.30
2019-05-25T08:20:10.581Z,19.40
2019-05-25T08:22:39.935Z,19.50
2019-05-25T08:25:11.018Z,19.60
2019-05-25T08:27:40.308Z,19.80
2019-05-25T08:30:10.463Z,19.90
2019-05-25T08:32:39.821Z,19.90
2019-05-25T08:35:10.773Z,20.00
2019-05-25T08:37:40.130Z,20.10
2019-05-25T08:40:10.510Z,20.20
2019-05-25T08:42:39.858Z,20.30
2019-05-25T08:45:09.846Z,20.40
2019-05-25T08:47:39.325Z,20.50
2019-05-25T08:50:09.366Z,20.50
2019-05-25T08:52:38.946Z,20.60
2019-05-25T08:55:09.732Z,20.70
2019-05-25T08:57:39.073Z,20.70
2019-05-25T09:00:09.175Z,20.80
2019-05-25T09:02:38.574Z,20.90
2019-05-25T09:05:09.149Z,21.00
2019-05-25T09:07:38.969Z,21.10
2019-05-25T09:10:10.490Z,21.10
2019-05-25T09:12:39.830Z,21.00
2019-05-25T09:15:10.382Z,21.00
2019-05-25T09:17:39.742Z,21.00
2019-05-25T09:20:10.991Z,21.10
2019-05-25T09:22:40.560Z,21.10
2019-05-25T09:25:10.750Z,21.20
2019-05-25T09:27:40.254Z,21.40
2019-05-25T09:30:10.749Z,21.50
2019-05-25T09:32:40.353Z,21.60
2019-05-25T09:35:11.012Z,21.70
2019-05-25T09:37:40.543Z,21.90
2019-05-25T09:40:11.031Z,21.90
2019-05-25T09:42:40.759Z,22.00
2019-05-25T09:45:14.034Z,22.00
2019-05-25T09:47:42.036Z,22.00
2019-05-25T09:50:11.876Z,22.10
2019-05-25T09:52:41.282Z,22.10
2019-05-25T09:55:12.877Z,22.20
2019-05-25T09:57:42.244Z,22.30
2019-05-25T10:00:13.179Z,22.50
2019-05-25T10:02:43.251Z,22.60
2019-05-25T10:05:14.427Z,22.70
2019-05-25T10:07:43.810Z,22.80
2019-05-25T10:10:15.118Z,22.90
2019-05-25T10:12:44.549Z,23.00
2019-05-25T10:15:14.329Z,23.10
2019-05-25T10:17:43.698Z,23.30
2019-05-25T10:20:14.189Z,23.40
2019-05-25T10:22:43.517Z,23.50
2019-05-25T10:25:12.926Z,23.60
2019-05-25T10:27:42.268Z,23.70
2019-05-25T10:30:12.322Z,23.70
2019-05-25T10:32:41.679Z,23.80
2019-05-25T10:35:12.677Z,23.90
2019-05-25T10:37:42.136Z,23.90
2019-05-25T10:40:11.934Z,24.00
2019-05-25T10:42:41.325Z,24.10
2019-05-25T10:45:11.626Z,24.10
2019-05-25T10:47:40.908Z,24.20
2019-05-25T10:50:11.226Z,24.40
2019-05-25T10:52:40.499Z,24.60
2019-05-25T10:55:11.332Z,24.90
2019-05-25T10:57:41.132Z,24.90
2019-05-25T11:00:11.993Z,25.30
2019-05-25T11:02:41.325Z,25.50
2019-05-25T11:05:12.082Z,25.70
2019-05-25T11:07:41.369Z,25.80
2019-05-25T11:10:11.302Z,26.00
2019-05-25T11:12:40.658Z,26.00
2019-05-25T11:15:11.289Z,26.10
2019-05-25T11:17:40.567Z,26.20
2019-05-25T11:20:11.884Z,26.40
2019-05-25T11:22:41.239Z,26.50
2019-05-25T11:25:11.646Z,26.60
2019-05-25T11:27:40.948Z,26.60
2019-05-25T11:30:11.551Z,26.70
2019-05-25T11:32:41.060Z,26.80
2019-05-25T11:35:10.349Z,26.80
2019-05-25T11:37:39.632Z,26.90
2019-05-25T11:40:11.093Z,26.90
2019-05-25T11:42:40.376Z,26.90
2019-05-25T11:45:10.722Z,26.80
2019-05-25T11:47:40.053Z,26.90
2019-05-25T11:50:10.470Z,27.00
2019-05-25T11:52:40.169Z,27.10
2019-05-25T11:55:10.955Z,27.30
2019-05-25T11:57:40.287Z,27.50
2019-05-25T12:00:23.818Z,27.70
2019-05-25T12:02:42.435Z,27.80
2019-05-25T12:05:13.589Z,27.70
2019-05-25T12:07:44.706Z,27.70
2019-05-25T12:10:15.337Z,27.80
2019-05-25T12:12:44.676Z,28.00
2019-05-25T12:15:14.464Z,28.20
2019-05-25T12:17:43.950Z,28.10
2019-05-25T12:20:14.721Z,27.60
2019-05-25T12:22:44.091Z,27.30
2019-05-25T12:25:13.999Z,26.90
2019-05-25T12:27:43.410Z,26.50
2019-05-25T12:30:14.942Z,26.30
2019-05-25T12:32:44.310Z,26.20
2019-05-25T12:35:14.347Z,26.30
2019-05-25T12:37:43.902Z,26.50
2019-05-25T12:40:14.657Z,26.60
2019-05-25T12:42:45.956Z,26.60
2019-05-25T12:45:16.674Z,27.00
2019-05-25T12:47:46.264Z,27.20
2019-05-25T12:50:17.001Z,27.30
2019-05-25T12:52:46.409Z,27.40
2019-05-25T12:55:15.945Z,27.30
2019-05-25T12:57:45.302Z,27.40
2019-05-25T13:00:16.918Z,27.60
2019-05-25T13:02:47.095Z,27.60
2019-05-25T13:05:16.668Z,27.40
2019-05-25T13:07:46.139Z,27.40
2019-05-25T13:10:16.139Z,27.40
2019-05-25T13:12:45.568Z,27.60
2019-05-25T13:15:15.029Z,27.60
2019-05-25T13:17:44.393Z,27.60
2019-05-25T13:20:15.001Z,27.70
2019-05-25T13:22:44.366Z,27.90
2019-05-25T13:25:14.127Z,27.70
2019-05-25T13:27:43.536Z,27.60
2019-05-25T13:30:13.463Z,27.90
2019-05-25T13:32:42.765Z,28.30
2019-05-25T13:35:12.249Z,28.70
2019-05-25T13:37:41.912Z,28.80
2019-05-25T13:40:11.708Z,28.90
2019-05-25T13:42:41.193Z,29.10
2019-05-25T13:45:13.411Z,29.30
2019-05-25T13:47:43.057Z,29.50
2019-05-25T13:50:13.350Z,29.60
2019-05-25T13:52:42.741Z,29.30
2019-05-25T13:55:12.520Z,29.10
2019-05-25T13:57:42.354Z,29.20
2019-05-25T14:00:13.135Z,29.20
2019-05-25T14:02:42.468Z,29.20
2019-05-25T14:05:12.416Z,29.20
2019-05-25T14:07:41.707Z,29.20
2019-05-25T14:10:11.753Z,28.90
2019-05-25T14:12:41.081Z,29.00
2019-05-25T14:15:12.131Z,29.10
2019-05-25T14:17:41.620Z,29.30
2019-05-25T14:20:11.127Z,29.30
2019-05-25T14:22:41.054Z,29.00
2019-05-25T14:25:11.196Z,29.10
2019-05-25T14:27:40.575Z,29.50
2019-05-25T14:30:10.957Z,30.00
2019-05-25T14:32:40.368Z,30.20
2019-05-25T14:35:09.808Z,30.30
2019-05-25T14:37:39.137Z,29.90
2019-05-25T14:40:11.504Z,29.40
2019-05-25T14:42:40.198Z,28.90
2019-05-25T14:45:10.423Z,28.40
2019-05-25T14:47:39.819Z,28.20
2019-05-25T14:50:10.192Z,28.20
2019-05-25T14:52:43.060Z,28.30
2019-05-25T14:55:11.579Z,28.80
2019-05-25T14:57:40.861Z,28.70
2019-05-25T15:00:11.949Z,28.80
2019-05-25T15:02:41.325Z,28.80
2019-05-25T15:05:10.653Z,28.90
2019-05-25T15:07:39.936Z,28.80
2019-05-25T15:10:09.708Z,28.50
2019-05-25T15:12:38.989Z,28.30
2019-05-25T15:15:09.360Z,28.20
2019-05-25T15:17:38.786Z,28.10
2019-05-25T15:20:09.367Z,28.20
2019-05-25T15:22:38.665Z,28.50
2019-05-25T15:25:08.871Z,28.50
2019-05-25T15:27:38.258Z,28.40
2019-05-25T15:30:08.266Z,28.70
2019-05-25T15:32:37.593Z,28.70
2019-05-25T15:35:08.452Z,28.50
2019-05-25T15:37:37.765Z,28.30
2019-05-25T15:40:08.109Z,28.10
2019-05-25T15:42:37.512Z,28.10
2019-05-25T15:45:07.646Z,28.30
2019-05-25T15:47:37.059Z,28.50
2019-05-25T15:50:08.290Z,28.60
2019-05-25T15:52:37.626Z,28.30
2019-05-25T15:55:07.905Z,28.30
2019-05-25T15:57:37.225Z,28.20
2019-05-25T16:00:08.853Z,28.10
2019-05-25T16:02:38.180Z,28.10
2019-05-25T16:05:08.024Z,28.50
2019-05-25T16:07:40.837Z,28.60
2019-05-25T16:10:10.913Z,28.40
2019-05-25T16:12:40.189Z,28.00
2019-05-25T16:15:10.165Z,27.80
2019-05-25T16:17:40.077Z,27.40
2019-05-25T16:20:09.378Z,27.00
2019-05-25T16:22:38.710Z,26.80
2019-05-25T16:25:08.037Z,26.70
2019-05-25T16:27:37.314Z,26.60
2019-05-25T16:30:06.873Z,26.30
2019-05-25T16:33:07.039Z,26.20
2019-05-25T16:35:07.329Z,26.10
2019-05-25T16:37:36.968Z,26.00
2019-05-25T16:40:07.111Z,25.80
2019-05-25T16:42:36.515Z,25.60
2019-05-25T16:45:06.625Z,25.30
2019-05-25T16:47:35.992Z,25.20
2019-05-25T16:50:05.693Z,25.00
2019-05-25T16:52:34.989Z,24.80
2019-05-25T16:55:04.349Z,24.60
2019-05-25T16:57:33.685Z,24.50
2019-05-25T17:00:03.139Z,24.30
2019-05-25T17:02:32.438Z,24.30
2019-05-25T17:05:01.724Z,24.10
2019-05-25T17:07:31.046Z,23.90
2019-05-25T17:10:00.372Z,23.80
2019-05-25T17:12:29.862Z,23.60
2019-05-25T17:14:59.149Z,23.40
2019-05-25T17:17:28.434Z,23.20
2019-05-25T17:19:57.769Z,23.10
2019-05-25T17:22:27.130Z,22.90
2019-05-25T17:24:59.347Z,22.80
2019-05-25T17:27:27.656Z,22.70
2019-05-25T17:29:56.981Z,22.60
2019-05-25T17:32:26.269Z,22.50
2019-05-25T17:34:55.586Z,22.50
2019-05-25T17:37:24.917Z,22.50
2019-05-25T17:39:54.234Z,22.50
2019-05-25T17:42:23.556Z,22.50
2019-05-25T17:44:52.878Z,22.50
2019-05-25T17:47:22.154Z,22.50
2019-05-25T17:49:51.482Z,22.50
2019-05-25T17:52:22.969Z,22.50
2019-05-25T17:54:51.881Z,22.50
2019-05-25T17:57:21.161Z,22.40
2019-05-25T17:59:50.470Z,22.30
2019-05-25T18:02:19.784Z,22.20
2019-05-25T18:04:49.089Z,22.10
2019-05-25T18:07:18.407Z,22.00
2019-05-25T18:09:47.792Z,21.90
2019-05-25T18:12:17.122Z,21.80
2019-05-25T18:14:46.457Z,21.70
2019-05-25T18:17:15.749Z,21.60
2019-05-25T18:19:45.079Z,21.50
2019-05-25T18:22:14.365Z,21.50
2019-05-25T18:24:43.689Z,21.30
2019-05-25T18:27:12.962Z,21.20
2019-05-25T18:29:42.296Z,21.10
2019-05-25T18:32:11.573Z,21.00
2019-05-25T18:34:40.893Z,20.90
2019-05-25T18:37:10.176Z,20.80
2019-05-25T18:39:39.568Z,20.70
2019-05-25T18:42:08.929Z,20.70
2019-05-25T18:44:38.250Z,20.60
2019-05-25T18:47:08.617Z,20.50
2019-05-25T18:49:37.970Z,20.40
2019-05-25T18:52:07.249Z,20.30
2019-05-25T18:54:36.570Z,20.30
2019-05-25T18:57:09.347Z,20.20
2019-05-25T18:59:36.970Z,20.10
2019-05-25T19:02:06.264Z,20.10
2019-05-25T19:04:45.661Z,20.00
2019-05-25T19:07:06.649Z,20.00
2019-05-25T19:09:35.925Z,19.80
2019-05-25T19:12:05.255Z,19.80
2019-05-25T19:14:34.582Z,19.70
2019-05-25T19:17:04.010Z,19.70
2019-05-25T19:19:33.403Z,19.60
2019-05-25T19:22:02.699Z,19.50
2019-05-25T19:24:32.121Z,19.40
2019-05-25T19:27:01.454Z,19.40
2019-05-25T19:29:30.741Z,19.30
2019-05-25T19:32:00.134Z,19.30
2019-05-25T19:34:29.534Z,19.30
2019-05-25T19:37:03.429Z,19.20
2019-05-25T19:39:30.000Z,19.20
2019-05-25T19:41:59.333Z,19.20
2019-05-25T19:44:28.684Z,19.10
2019-05-25T19:46:58.028Z,19.10
2019-05-25T19:49:27.397Z,19.10
2019-05-25T19:51:56.689Z,19.00
2019-05-25T19:54:25.978Z,19.00
2019-05-25T19:56:55.293Z,19.10
2019-05-25T19:59:24.564Z,19.00
2019-05-25T20:01:53.897Z,19.20
2019-05-25T20:04:23.309Z,19.20
2019-05-25T20:06:52.659Z,19.20
2019-05-25T20:09:22.081Z,19.20
2019-05-25T20:11:51.399Z,19.20
2019-05-25T20:14:20.678Z,19.20
2019-05-25T20:16:50.038Z,19.10
2019-05-25T20:19:19.359Z,19.10
2019-05-25T20:21:48.721Z,19.00
2019-05-25T20:24:18.014Z,19.00
2019-05-25T20:26:47.839Z,19.00
2019-05-25T20:29:17.245Z,19.00
2019-05-25T20:31:46.586Z,19.00
2019-05-25T20:34:15.914Z,18.90
2019-05-25T20:36:45.189Z,18.80
2019-05-25T20:39:14.481Z,18.70
2019-05-25T20:41:43.873Z,18.70
2019-05-25T20:44:13.162Z,18.70
2019-05-25T20:46:42.517Z,18.70
2019-05-25T20:49:11.807Z,18.60
2019-05-25T20:51:41.133Z,18.60
2019-05-25T20:54:11.028Z,18.60
2019-05-25T20:56:40.399Z,18.60
2019-05-25T20:59:09.685Z,18.60
2019-05-25T21:01:39.074Z,18.70
2019-05-25T21:04:08.377Z,18.80
2019-05-25T21:06:38.149Z,18.80
2019-05-25T21:09:08.711Z,18.80
2019-05-25T21:11:38.126Z,18.80
2019-05-25T21:14:07.437Z,18.80
2019-05-25T21:16:36.774Z,18.80
2019-05-25T21:19:06.091Z,18.70
2019-05-25T21:21:35.477Z,18.80
2019-05-25T21:24:04.915Z,18.90
2019-05-25T21:26:34.281Z,18.90
2019-05-25T21:29:03.675Z,18.90
2019-05-25T21:31:32.954Z,19.00
2019-05-25T21:34:02.273Z,19.10
2019-05-25T21:36:31.549Z,19.00
2019-05-25T21:39:00.885Z,19.10
2019-05-25T21:41:30.247Z,19.10
2019-05-25T21:43:59.565Z,19.00
2019-05-25T21:46:28.857Z,19.00
2019-05-25T21:48:58.181Z,19.00
2019-05-25T21:51:27.458Z,18.90
2019-05-25T21:53:56.789Z,18.80
2019-05-25T21:56:26.106Z,18.70
2019-05-25T21:58:55.381Z,18.70
2019-05-25T22:01:24.730Z,18.60
2019-05-25T22:03:54.026Z,18.60
2019-05-25T22:06:24.785Z,18.50
2019-05-25T22:08:54.387Z,18.50
2019-05-25T22:11:23.708Z,18.50
2019-05-25T22:13:53.093Z,18.50
2019-05-25T22:16:22.453Z,18.50
2019-05-25T22:18:51.774Z,18.40
2019-05-25T22:21:21.067Z,18.40
2019-05-25T22:23:50.380Z,18.40
2019-05-25T22:26:19.793Z,18.30
2019-05-25T22:28:49.220Z,18.40
2019-05-25T22:31:18.498Z,18.30
2019-05-25T22:33:47.824Z,18.30
2019-05-25T22:36:17.149Z,18.30
2019-05-25T22:38:46.575Z,18.30
2019-05-25T22:41:19.686Z,18.20
2019-05-25T22:43:46.953Z,18.10
2019-05-25T22:46:16.241Z,18.00
2019-05-25T22:48:45.564Z,18.00
2019-05-25T22:51:14.838Z,18.00
2019-05-25T22:53:44.159Z,17.90
2019-05-25T22:56:13.454Z,17.90
2019-05-25T22:58:42.825Z,17.90
2019-05-25T23:01:12.106Z,17.90
2019-05-25T23:03:41.486Z,17.90
2019-05-25T23:06:10.813Z,17.90
2019-05-25T23:08:40.108Z,17.90
2019-05-25T23:11:09.428Z,17.90
2019-05-25T23:13:38.705Z,17.90
2019-05-25T23:16:12.315Z,17.90
2019-05-25T23:18:41.595Z,17.90
2019-05-25T23:21:10.952Z,17.90
2019-05-25T23:23:40.357Z,17.90
2019-05-25T23:26:09.674Z,17.80
2019-05-25T23:28:38.990Z,17.80
2019-05-25T23:31:08.313Z,17.80
2019-05-25T23:33:37.615Z,17.70
2019-05-25T23:36:06.949Z,17.70
2019-05-25T23:38:36.401Z,17.70
2019-05-25T23:41:06.144Z,17.70
2019-05-25T23:43:35.430Z,17.70
2019-05-25T23:46:04.734Z,17.70
2019-05-25T23:48:34.063Z,17.70
2019-05-25T23:51:03.339Z,17.70
2019-05-25T23:53:32.662Z,17.70
2019-05-25T23:56:01.950Z,17.70
2019-05-25T23:58:31.300Z,17.70
